createdAt,value
2018-11-02T00:00:17.606Z,94.64
2018-11-02T00:01:28.313Z,94.45
2018-11-02T00:02:38.162Z,94.64
2018-11-02T00:03:47.729Z,94.35
2018-11-02T00:04:57.287Z,94.45
2018-11-02T00:06:07.179Z,94.45
2018-11-02T00:07:17.584Z,94.26
2018-11-02T00:08:27.699Z,94.35
2018-11-02T00:09:37.260Z,94.17
2018-11-02T00:10:47.073Z,94.26
2018-11-02T00:11:57.176Z,94.17
2018-11-02T00:13:06.764Z,94.17
2018-11-02T00:14:16.800Z,94.17
2018-11-02T00:15:27.418Z,94.17
2018-11-02T00:16:37.720Z,94.26
2018-11-02T00:17:47.557Z,94.17
2018-11-02T00:18:57.160Z,94.26
2018-11-02T00:20:06.719Z,94.12
2018-11-02T00:21:16.544Z,94.17
2018-11-02T00:22:26.448Z,94.12
2018-11-02T00:23:36.538Z,94.12
2018-11-02T00:24:46.365Z,94.12
2018-11-02T00:25:56.176Z,94.12
2018-11-02T00:27:06.257Z,94.31
2018-11-02T00:28:16.064Z,94.31
2018-11-02T00:29:25.858Z,94.12
2018-11-02T00:30:35.706Z,94.21
2018-11-02T00:31:45.926Z,94.31
2018-11-02T00:32:56.396Z,94.31
2018-11-02T00:34:06.225Z,94.4
2018-11-02T00:35:16.055Z,94.31
2018-11-02T00:36:26.232Z,94.21
2018-11-02T00:37:37.038Z,94.12
2018-11-02T00:38:46.936Z,94.21
2018-11-02T00:39:56.762Z,94.21
2018-11-02T00:41:06.597Z,94.31
2018-11-02T00:42:16.163Z,94.36
2018-11-02T00:43:26.231Z,94.26
2018-11-02T00:44:35.541Z,93.98
2018-11-02T00:45:45.634Z,94.17
2018-11-02T00:46:55.463Z,94.07
2018-11-02T00:48:05.543Z,94.36
2018-11-02T00:49:15.385Z,94.26
2018-11-02T00:50:25.283Z,94.26
2018-11-02T00:51:35.370Z,94.26
2018-11-02T00:52:44.658Z,94.36
2018-11-02T00:53:54.562Z,94.17
2018-11-02T00:55:04.860Z,94.36
2018-11-02T00:56:15.593Z,94.12
2018-11-02T00:57:26.086Z,94.31
2018-11-02T00:58:36.634Z,94.21
2018-11-02T00:59:46.930Z,94.21
2018-11-02T01:00:56.539Z,94.12
2018-11-02T01:02:06.618Z,94.31
2018-11-02T01:03:16.445Z,94.12
2018-11-02T01:04:26.576Z,93.64
2018-11-02T01:05:36.815Z,94.12
2018-11-02T01:06:47.281Z,94.02
2018-11-02T01:07:57.139Z,93.55
2018-11-02T01:09:07.221Z,93.74
2018-11-02T01:10:17.031Z,93.84
2018-11-02T01:11:27.126Z,93.74
2018-11-02T01:12:37.206Z,93.55
2018-11-02T01:13:47.272Z,93.74
2018-11-02T01:14:56.830Z,94.12
2018-11-02T01:16:06.920Z,93.84
2018-11-02T01:17:16.758Z,93.64
2018-11-02T01:18:26.839Z,93.74
2018-11-02T01:19:36.662Z,93.84
2018-11-02T01:20:46.685Z,93.74
2018-11-02T01:21:56.653Z,94.02
2018-11-02T01:23:06.642Z,93.55
2018-11-02T01:24:16.201Z,93.55
2018-11-02T01:25:25.204Z,93.84
2018-11-02T01:26:35.022Z,93.79
2018-11-02T01:27:44.843Z,94.12
2018-11-02T01:28:54.803Z,94.02
2018-11-02T01:30:04.677Z,93.88
2018-11-02T01:31:13.955Z,93.5
2018-11-02T01:32:23.778Z,93.6
2018-11-02T01:33:33.367Z,93.69
2018-11-02T01:34:43.461Z,93.98
2018-11-02T01:35:53.286Z,93.79
2018-11-02T01:37:03.241Z,93.79
2018-11-02T01:38:13.347Z,93.88
2018-11-02T01:39:22.899Z,93.6
2018-11-02T01:40:32.711Z,93.88
2018-11-02T01:41:42.265Z,93.69
2018-11-02T01:42:52.368Z,93.98
2018-11-02T01:44:03.754Z,93.69
2018-11-02T01:45:13.654Z,93.69
2018-11-02T01:46:24.222Z,93.79
2018-11-02T01:47:34.293Z,93.79
2018-11-02T01:48:44.134Z,93.5
2018-11-02T01:49:53.950Z,93.31
2018-11-02T01:51:05.408Z,93.6
2018-11-02T01:52:15.505Z,93.69
2018-11-02T01:53:25.324Z,93.4
2018-11-02T01:54:35.123Z,93.65
2018-11-02T01:55:44.924Z,93.6
2018-11-02T01:56:55.077Z,93.55
2018-11-02T01:58:04.886Z,93.65
2018-11-02T01:59:14.435Z,93.36
2018-11-02T02:00:24.514Z,93.55
2018-11-02T02:01:34.322Z,93.65
2018-11-02T02:02:44.415Z,93.55
2018-11-02T02:03:54.555Z,93.93
2018-11-02T02:05:04.698Z,93.74
2018-11-02T02:06:14.319Z,93.74
2018-11-02T02:07:24.065Z,93.55
2018-11-02T02:08:34.374Z,94.02
2018-11-02T02:09:44.203Z,93.55
2018-11-02T02:10:54.044Z,93.45
2018-11-02T02:12:04.224Z,93.45
2018-11-02T02:13:14.388Z,93.55
2018-11-02T02:14:24.707Z,93.55
2018-11-02T02:15:34.570Z,93.55
2018-11-02T02:16:44.631Z,93.55
2018-11-02T02:17:54.712Z,93.55
2018-11-02T02:19:05.328Z,93.5
2018-11-02T02:20:15.162Z,93.7
2018-11-02T02:21:24.711Z,93.6
2018-11-02T02:22:34.772Z,93.41
2018-11-02T02:23:44.615Z,93.7
2018-11-02T02:24:54.161Z,93.6
2018-11-02T02:26:04.004Z,93.7
2018-11-02T02:27:14.116Z,93.7
2018-11-02T02:28:25.247Z,93.7
2018-11-02T02:29:35.576Z,93.31
2018-11-02T02:30:45.393Z,93.7
2018-11-02T02:31:55.219Z,93.88
2018-11-02T02:33:05.352Z,93.79
2018-11-02T02:34:15.427Z,93.12
2018-11-02T02:35:25.247Z,93.31
2018-11-02T02:36:35.319Z,93.41
2018-11-02T02:37:45.165Z,93.41
2018-11-02T02:38:55.016Z,93.41
2018-11-02T02:40:04.833Z,93.21
2018-11-02T02:41:14.111Z,93.41
2018-11-02T02:42:23.910Z,93.21
2018-11-02T02:43:33.765Z,92.93
2018-11-02T02:44:43.885Z,93.31
2018-11-02T02:45:54.024Z,93.02
2018-11-02T02:47:04.115Z,92.83
2018-11-02T02:48:13.934Z,93.21
2018-11-02T02:49:24.363Z,93.21
2018-11-02T02:50:34.702Z,93.31
2018-11-02T02:51:45.285Z,92.93
2018-11-02T02:52:54.559Z,93.12
2018-11-02T02:54:04.626Z,93.5
2018-11-02T02:55:14.220Z,93.02
2018-11-02T02:56:25.367Z,93.21
2018-11-02T02:57:35.180Z,92.93
2018-11-02T02:58:45.280Z,93.12
2018-11-02T02:59:54.902Z,93.12
2018-11-02T03:01:06.459Z,93.21
2018-11-02T03:02:16.624Z,93.21
2018-11-02T03:34:39.370Z,88.03
2018-11-02T03:35:49.461Z,88.03
2018-11-02T03:36:59.558Z,89.07
2018-11-02T03:38:09.681Z,89.65
2018-11-02T03:39:19.484Z,90.22
2018-11-02T03:40:29.634Z,90.7
2018-11-02T03:41:40.115Z,91.17
2018-11-02T03:42:50.626Z,91.94
2018-11-02T03:44:02.331Z,91.94
2018-11-02T03:45:12.189Z,92.46
2018-11-02T03:46:22.063Z,91.88
2018-11-02T03:47:32.218Z,92.93
2018-11-02T03:48:42.362Z,92.74
2018-11-02T03:49:52.188Z,92.93
2018-11-02T03:51:02.300Z,93.03
2018-11-02T03:52:12.548Z,92.84
2018-11-02T03:53:22.640Z,92.88
2018-11-02T03:54:32.744Z,92.88
2018-11-02T03:55:43.110Z,92.88
2018-11-02T03:56:53.853Z,93.36
2018-11-02T03:58:05.014Z,93.46
2018-11-02T03:59:14.413Z,92.98
2018-11-02T04:00:24.001Z,92.88
2018-11-02T04:01:35.731Z,93.02
2018-11-02T04:02:46.156Z,93.12
2018-11-02T04:03:55.778Z,92.74
2018-11-02T04:05:06.336Z,92.83
2018-11-02T04:06:16.152Z,92.74
2018-11-02T04:07:26.264Z,93.07
2018-11-02T04:08:36.401Z,92.88
2018-11-02T04:09:46.833Z,92.6
2018-11-02T04:10:57.112Z,92.79
2018-11-02T04:12:07.269Z,92.31
2018-11-02T04:13:17.426Z,93.26
2018-11-02T04:14:27.248Z,92.31
2018-11-02T04:15:36.869Z,92.41
2018-11-02T04:16:46.988Z,93.26
2018-11-02T04:17:57.082Z,93.46
2018-11-02T04:19:06.671Z,93.17
2018-11-02T04:20:16.482Z,93.17
2018-11-02T04:21:26.304Z,93.07
2018-11-02T04:22:36.633Z,93.07
2018-11-02T04:23:46.871Z,92.88
2018-11-02T04:24:57.932Z,93.26
2018-11-02T04:26:08.930Z,93.17
2018-11-02T04:27:18.750Z,93.26
2018-11-02T04:28:28.859Z,93.07
2018-11-02T04:29:38.806Z,92.88
2018-11-02T04:30:48.897Z,92.97
2018-11-02T04:31:59.216Z,92.79
2018-11-02T04:33:09.373Z,92.79
2018-11-02T04:34:19.223Z,93.46
2018-11-02T04:35:29.097Z,93.36
2018-11-02T04:36:39.222Z,93.07
2018-11-02T04:37:49.321Z,93.07
2018-11-02T04:38:59.472Z,93.17
2018-11-02T04:40:11.519Z,93.36
2018-11-02T04:41:21.619Z,93.12
2018-11-02T04:42:31.501Z,93.07
2018-11-02T04:43:41.858Z,93.07
2018-11-02T04:44:52.645Z,93.17
2018-11-02T04:46:03.317Z,93.26
2018-11-02T04:47:13.419Z,93.36
2018-11-02T04:48:23.242Z,93.55
2018-11-02T04:49:33.370Z,93.26
2018-11-02T04:50:43.247Z,93.55
2018-11-02T04:51:52.915Z,93.74
2018-11-02T04:53:03.140Z,93.65
2018-11-02T04:54:13.263Z,93.07
2018-11-02T04:55:23.383Z,93.46
2018-11-02T04:56:33.221Z,93.46
2018-11-02T04:57:43.334Z,93.65
2018-11-02T04:58:52.901Z,93.74
2018-11-02T05:00:03.157Z,93.55
2018-11-02T05:01:12.965Z,93.55
2018-11-02T05:02:23.140Z,93.55
2018-11-02T05:03:33.337Z,93.65
2018-11-02T05:04:43.655Z,93.55
2018-11-02T05:05:53.804Z,93.36
2018-11-02T05:07:04.647Z,93.55
2018-11-02T05:08:14.217Z,93.65
2018-11-02T05:09:24.050Z,93.55
2018-11-02T05:10:34.164Z,93.36
2018-11-02T05:11:43.728Z,93.65
2018-11-02T05:12:53.278Z,93.65
2018-11-02T05:14:03.261Z,93.65
2018-11-02T05:15:13.100Z,93.74
2018-11-02T05:16:23.196Z,93.6
2018-11-02T05:17:33.301Z,93.79
2018-11-02T05:18:42.621Z,93.6
2018-11-02T05:19:52.826Z,93.51
2018-11-02T05:21:02.805Z,93.12
2018-11-02T05:22:12.765Z,93.02
2018-11-02T05:23:22.612Z,93.7
2018-11-02T05:24:32.774Z,93.41
2018-11-02T05:25:42.925Z,93.12
2018-11-02T05:26:53.349Z,93.41
2018-11-02T05:28:03.990Z,93.41
2018-11-02T05:29:14.780Z,93.12
2018-11-02T05:30:24.664Z,93.02
2018-11-02T05:31:34.493Z,93.51
2018-11-02T05:32:44.590Z,92.65
2018-11-02T05:33:53.624Z,92.93
2018-11-02T05:35:03.742Z,92.93
2018-11-02T05:36:13.851Z,92.83
2018-11-02T05:37:23.150Z,92.83
2018-11-02T05:38:33.350Z,92.83
2018-11-02T05:39:43.441Z,92.93
2018-11-02T05:40:53.081Z,93.12
2018-11-02T05:42:02.943Z,92.93
2018-11-02T05:43:13.085Z,92.83
2018-11-02T05:44:22.899Z,93.02
2018-11-02T05:45:33.018Z,93.12
2018-11-02T05:46:42.579Z,92.93
2018-11-02T05:47:52.680Z,93.02
2018-11-02T05:49:05.432Z,92.93
2018-11-02T05:50:16.239Z,93.22
2018-11-02T05:51:27.098Z,93.12
2018-11-02T05:52:36.417Z,93.12
2018-11-02T05:53:46.315Z,93.12
2018-11-02T05:54:56.194Z,93.02
2018-11-02T05:56:06.020Z,93.12
2018-11-02T05:57:16.116Z,93.22
2018-11-02T05:58:26.218Z,92.36
2018-11-02T05:59:36.138Z,92.46
2018-11-02T06:00:45.697Z,92.65
2018-11-02T06:01:55.822Z,92.83
2018-11-02T06:03:06.011Z,92.83
2018-11-02T06:04:15.568Z,92.83
2018-11-02T06:05:25.389Z,93.02
2018-11-02T06:06:35.299Z,92.74
2018-11-02T06:07:45.315Z,92.83
2018-11-02T06:08:54.733Z,92.65
2018-11-02T06:10:04.562Z,92.17
2018-11-02T06:11:14.482Z,92.46
2018-11-02T06:12:24.836Z,92.36
2018-11-02T06:13:35.327Z,92.46
2018-11-02T06:14:45.607Z,92.55
2018-11-02T06:15:55.744Z,92.36
2018-11-02T06:17:05.326Z,92.46
2018-11-02T06:18:15.482Z,92.83
2018-11-02T06:19:25.340Z,92.17
2018-11-02T06:20:34.630Z,92.36
2018-11-02T06:21:44.735Z,91.64
2018-11-02T06:22:54.553Z,91.93
2018-11-02T06:24:04.871Z,91.83
2018-11-02T06:25:14.291Z,92.31
2018-11-02T06:26:24.389Z,92.02
2018-11-02T06:27:34.506Z,92.02
2018-11-02T06:28:44.617Z,91.83
2018-11-02T06:29:54.747Z,92.12
2018-11-02T06:31:04.324Z,92.31
2018-11-02T06:32:14.153Z,92.36
2018-11-02T06:33:23.713Z,92.31
2018-11-02T06:34:34.402Z,92.26
2018-11-02T06:35:45.108Z,92.36
2018-11-02T06:36:55.274Z,92.36
2018-11-02T06:38:05.363Z,92.26
2018-11-02T06:39:15.218Z,92.45
2018-11-02T06:40:24.514Z,92.26
2018-11-02T06:41:34.414Z,92.16
2018-11-02T06:42:44.508Z,91.69
2018-11-02T06:43:54.634Z,91.74
2018-11-02T06:45:05.137Z,91.54
2018-11-02T06:46:15.729Z,91.64
2018-11-02T06:47:25.832Z,91.54
2018-11-02T06:48:35.682Z,91.54
2018-11-02T06:49:45.534Z,91.93
2018-11-02T06:50:55.470Z,91.74
2018-11-02T06:52:05.776Z,91.93
2018-11-02T06:53:15.669Z,91.54
2018-11-02T06:54:25.529Z,91.64
2018-11-02T06:55:36.366Z,91.59
2018-11-02T06:56:46.600Z,91.39
2018-11-02T06:57:56.482Z,91.49
2018-11-02T06:59:08.800Z,91.78
2018-11-02T07:00:19.201Z,91.78
2018-11-02T07:01:30.127Z,91.78
2018-11-02T07:02:40.217Z,91.78
2018-11-02T07:03:50.065Z,92.07
2018-11-02T07:04:59.896Z,92.07
2018-11-02T07:06:09.765Z,92.07
2018-11-02T07:07:20.175Z,91.53
2018-11-02T07:08:30.762Z,91.35
2018-11-02T07:09:41.149Z,91.83
2018-11-02T07:10:50.992Z,91.73
2018-11-02T07:12:00.814Z,92.02
2018-11-02T07:13:10.952Z,92.02
2018-11-02T07:14:21.392Z,91.58
2018-11-02T07:15:31.552Z,91.68
2018-11-02T07:16:42.409Z,91.39
2018-11-02T07:17:51.980Z,91.58
2018-11-02T07:19:02.079Z,91.49
2018-11-02T07:20:12.232Z,91.3
2018-11-02T07:21:22.071Z,91.49
2018-11-02T07:22:31.902Z,91.3
2018-11-02T07:23:41.733Z,91.58
2018-11-02T07:24:52.000Z,92.21
2018-11-02T07:26:02.083Z,92.16
2018-11-02T07:27:12.175Z,91.92
2018-11-02T07:28:22.065Z,91.63
2018-11-02T07:29:31.389Z,91.34
2018-11-02T07:30:41.254Z,91.92
2018-11-02T07:31:51.084Z,92.01
2018-11-02T07:33:02.864Z,91.92
2018-11-02T07:34:13.013Z,91.63
2018-11-02T07:35:23.550Z,91.34
2018-11-02T07:36:34.430Z,91.49
2018-11-02T07:37:44.846Z,91.49
2018-11-02T07:38:54.953Z,91.67
2018-11-02T07:40:05.401Z,91.29
2018-11-02T07:41:15.253Z,91.39
2018-11-02T07:42:25.156Z,91.49
2018-11-02T07:43:35.004Z,91.49
2018-11-02T07:44:44.849Z,91.49
2018-11-02T07:45:54.671Z,91.67
2018-11-02T07:47:04.808Z,91.63
2018-11-02T07:48:14.417Z,91.72
2018-11-02T07:49:24.684Z,91.53
2018-11-02T07:50:34.579Z,91.72
2018-11-02T07:51:44.710Z,91.72
2018-11-02T07:52:54.895Z,91.14
2018-11-02T07:54:05.024Z,91.24
2018-11-02T07:55:14.604Z,91
2018-11-02T07:56:24.576Z,91
2018-11-02T07:57:35.485Z,91.09
2018-11-02T07:58:45.888Z,91.09
2018-11-02T07:59:55.459Z,91.19
2018-11-02T08:01:05.157Z,91.38
2018-11-02T08:02:14.741Z,91
2018-11-02T08:03:24.926Z,91.05
2018-11-02T08:04:35.112Z,91.42
2018-11-02T08:05:44.695Z,91.24
2018-11-02T08:06:54.273Z,91.14
2018-11-02T08:08:04.642Z,90.95
2018-11-02T08:09:14.735Z,91.52
2018-11-02T08:10:24.313Z,91.42
2018-11-02T08:11:34.144Z,91.14
2018-11-02T08:12:44.457Z,91.47
2018-11-02T08:13:54.549Z,91.09
2018-11-02T08:15:04.687Z,91.38
2018-11-02T08:16:14.520Z,91.19
2018-11-02T08:17:24.662Z,91.19
2018-11-02T08:18:35.145Z,91.19
2018-11-02T08:19:45.285Z,91.09
2018-11-02T08:20:54.879Z,91.13
2018-11-02T08:22:04.959Z,91.09
2018-11-02T08:23:13.980Z,91.13
2018-11-02T08:24:23.861Z,91.42
2018-11-02T08:25:34.342Z,91.23
2018-11-02T08:26:44.402Z,91.33
2018-11-02T08:27:54.492Z,91.13
2018-11-02T08:29:04.564Z,91.71
2018-11-02T08:30:14.111Z,91.52
2018-11-02T08:31:23.691Z,92.14
2018-11-02T08:32:33.760Z,92.14
2018-11-02T08:33:43.593Z,92.82
2018-11-02T08:34:53.167Z,92.91
2018-11-02T08:36:03.329Z,92.77
2018-11-02T08:37:13.149Z,92.72
2018-11-02T08:38:23.226Z,93.15
2018-11-02T08:39:33.304Z,92.58
2018-11-02T08:40:43.120Z,92.68
2018-11-02T08:41:53.219Z,92.96
2018-11-02T08:43:05.410Z,92.58
2018-11-02T08:44:15.247Z,92.77
2018-11-02T08:45:25.092Z,92.68
2018-11-02T08:46:35.103Z,92.68
2018-11-02T08:47:45.444Z,91.91
2018-11-02T08:48:55.516Z,92.24
2018-11-02T08:50:08.215Z,91.57
2018-11-02T08:51:18.291Z,91.96
2018-11-02T08:52:28.532Z,91.23
2018-11-02T08:53:38.001Z,91.71
2018-11-02T08:54:47.818Z,91.13
2018-11-02T08:55:57.639Z,91.33
2018-11-02T08:57:07.465Z,91.33
2018-11-02T08:58:17.981Z,90.7
2018-11-02T08:59:29.525Z,91.18
2018-11-02T09:00:40.167Z,91.28
2018-11-02T09:01:50.000Z,90.89
2018-11-02T09:02:59.847Z,91.03
2018-11-02T09:04:09.680Z,90.94
2018-11-02T09:05:19.244Z,91.52
2018-11-02T09:06:29.396Z,91.13
2018-11-02T09:07:39.233Z,91.13
2018-11-02T09:08:48.827Z,91.22
2018-11-02T09:09:58.965Z,91.13
2018-11-02T09:11:11.080Z,91.13
2018-11-02T09:12:21.330Z,91.36
2018-11-02T09:13:31.157Z,91.27
2018-11-02T09:14:40.705Z,91.08
2018-11-02T09:15:50.542Z,91.17
2018-11-02T09:17:00.652Z,90.98
2018-11-02T09:18:10.715Z,90.98
2018-11-02T09:19:20.391Z,91.36
2018-11-02T09:20:30.338Z,91.75
2018-11-02T09:21:40.190Z,91.46
2018-11-02T09:22:50.267Z,91.36
2018-11-02T09:24:00.369Z,91.46
2018-11-02T09:25:09.930Z,90.69
2018-11-02T09:26:20.048Z,91.46
2018-11-02T09:27:29.372Z,91.51
2018-11-02T09:28:39.961Z,90.93
2018-11-02T09:29:50.098Z,90.83
2018-11-02T09:31:01.342Z,91.8
2018-11-02T09:32:11.411Z,90.83
2018-11-02T09:33:21.491Z,90.83
2018-11-02T09:34:31.602Z,91.22
2018-11-02T09:35:41.455Z,91.31
2018-11-02T09:36:51.350Z,91.03
2018-11-02T09:38:01.205Z,91.22
2018-11-02T09:39:11.305Z,91.31
2018-11-02T09:40:21.760Z,91.31
2018-11-02T09:41:32.407Z,90.83
2018-11-02T09:42:42.690Z,91.65
2018-11-02T09:43:53.427Z,91.65
2018-11-02T09:45:04.276Z,91.75
2018-11-02T09:46:13.899Z,91.27
2018-11-02T09:47:23.532Z,91.27
2018-11-02T09:48:33.379Z,91.27
2018-11-02T09:49:43.253Z,91.27
2018-11-02T09:50:53.096Z,91.27
2018-11-02T09:52:04.115Z,91.36
2018-11-02T09:53:15.734Z,91.21
2018-11-02T09:54:25.593Z,91.17
2018-11-02T09:55:35.708Z,91.41
2018-11-02T09:56:45.855Z,91.41
2018-11-02T09:57:56.260Z,91.41
2018-11-02T09:59:07.952Z,91.41
2018-11-02T10:00:18.076Z,91.41
2018-11-02T10:01:28.004Z,91.31
2018-11-02T10:02:38.121Z,91.21
2018-11-02T10:03:48.244Z,90.92
2018-11-02T10:04:58.104Z,90.73
2018-11-02T10:06:08.306Z,91.02
2018-11-02T10:07:17.939Z,91.5
2018-11-02T10:08:27.805Z,91.31
2018-11-02T10:09:37.599Z,91.41
2018-11-02T10:10:47.471Z,91.31
2018-11-02T10:11:57.621Z,91.6
2018-11-02T10:13:07.739Z,91.36
2018-11-02T10:14:18.736Z,90.92
2018-11-02T10:15:29.396Z,90.88
2018-11-02T10:16:39.003Z,90.88
2018-11-02T10:17:48.370Z,90.78
2018-11-02T10:18:58.531Z,90.88
2018-11-02T10:20:08.743Z,90.97
2018-11-02T10:21:18.338Z,90.97
2018-11-02T10:22:28.532Z,90.88
2018-11-02T10:23:37.969Z,90.88
2018-11-02T10:24:48.426Z,91.26
2018-11-02T10:25:58.305Z,90.97
2018-11-02T10:27:08.142Z,91.36
2018-11-02T10:28:17.241Z,91.26
2018-11-02T10:29:27.898Z,91.16
2018-11-02T10:30:37.769Z,91.36
2018-11-02T10:31:47.900Z,91.02
2018-11-02T10:32:57.838Z,91.11
2018-11-02T10:34:07.460Z,91.02
2018-11-02T10:35:17.690Z,91.3
2018-11-02T10:36:28.062Z,91.6
2018-11-02T10:37:38.750Z,91.5
2018-11-02T10:38:49.527Z,91.5
2018-11-02T10:39:59.405Z,91.11
2018-11-02T10:41:10.695Z,91.5
2018-11-02T10:42:20.843Z,91.11
2018-11-02T10:43:30.715Z,91.16
2018-11-02T10:44:41.156Z,90.96
2018-11-02T10:45:51.412Z,91.35
2018-11-02T10:47:01.466Z,91.25
2018-11-02T10:48:11.342Z,91.16
2018-11-02T10:49:21.677Z,91.25
2018-11-02T10:50:32.412Z,91.25
2018-11-02T10:51:42.631Z,91.16
2018-11-02T10:52:52.233Z,90.96
2018-11-02T10:54:02.934Z,91.06
2018-11-02T10:55:12.516Z,91.16
2018-11-02T10:56:22.711Z,91.35
2018-11-02T10:57:32.592Z,90.96
2018-11-02T10:58:42.922Z,91.16
2018-11-02T10:59:53.962Z,91.16
2018-11-02T11:01:05.283Z,91.3
2018-11-02T11:02:15.879Z,91.2
2018-11-02T11:03:26.035Z,91.3
2018-11-02T11:04:35.901Z,91.25
2018-11-02T11:05:46.063Z,91.16
2018-11-02T11:06:55.937Z,91.25
2018-11-02T11:08:06.603Z,91.16
2018-11-02T11:09:16.792Z,91.25
2018-11-02T11:10:26.672Z,91.3
2018-11-02T11:11:37.066Z,91.3
2018-11-02T11:12:48.909Z,91.11
2018-11-02T11:14:00.072Z,91.3
2018-11-02T11:15:10.214Z,91.3
2018-11-02T11:16:20.052Z,91.3
2018-11-02T11:17:30.194Z,91.3
2018-11-02T11:18:40.088Z,91.39
2018-11-02T11:19:50.333Z,91.49
2018-11-02T11:21:00.115Z,91.49
2018-11-02T11:22:10.857Z,91.68
2018-11-02T11:23:20.825Z,91.3
2018-11-02T11:24:30.700Z,91.15
2018-11-02T11:25:40.809Z,91.49
2018-11-02T11:26:50.417Z,91.49
2018-11-02T11:28:00.868Z,91.49
2018-11-02T11:29:10.891Z,91.49
2018-11-02T11:30:20.857Z,91.35
2018-11-02T11:31:31.007Z,91.53
2018-11-02T11:32:40.879Z,91.44
2018-11-02T11:33:51.012Z,91.44
2018-11-02T11:35:00.320Z,91.44
2018-11-02T11:36:10.200Z,91.35
2018-11-02T11:37:20.413Z,91.35
2018-11-02T11:38:30.364Z,91.44
2018-11-02T11:39:40.385Z,91.63
2018-11-02T11:40:50.386Z,91.44
2018-11-02T11:42:00.305Z,91.44
2018-11-02T11:43:10.486Z,91.44
2018-11-02T11:44:20.499Z,91.44
2018-11-02T11:45:31.087Z,91.44
2018-11-02T11:46:41.187Z,91.35
2018-11-02T11:47:51.329Z,91.35
2018-11-02T11:49:02.742Z,91.53
2018-11-02T11:50:13.613Z,91.53
2018-11-02T11:51:23.218Z,91.35
2018-11-02T11:52:32.841Z,91.35
2018-11-02T11:53:42.766Z,91.25
2018-11-02T11:54:52.641Z,90.95
2018-11-02T11:56:02.754Z,91.68
2018-11-02T11:57:12.365Z,92.16
2018-11-02T11:58:22.226Z,92.7
2018-11-02T11:59:32.385Z,92.85
2018-11-02T12:00:42.256Z,92.75
2018-11-02T12:01:52.120Z,93.13
2018-11-02T12:03:02.265Z,93.48
2018-11-02T12:04:12.604Z,93.48
2018-11-02T12:05:22.722Z,93.48
2018-11-02T12:06:32.043Z,93.28
2018-11-02T12:07:41.668Z,93.48
2018-11-02T12:08:52.106Z,92.99
2018-11-02T12:10:03.225Z,93.09
2018-11-02T12:11:12.870Z,93.09
2018-11-02T12:12:22.731Z,93.14
2018-11-02T12:13:32.887Z,93.33
2018-11-02T12:14:42.766Z,93.14
2018-11-02T12:15:52.467Z,93.24
2018-11-02T12:17:04.097Z,93.33
2018-11-02T12:18:14.043Z,92.94
2018-11-02T12:19:23.618Z,93.24
2018-11-02T12:20:33.470Z,93.52
2018-11-02T12:21:43.793Z,93.29
2018-11-02T12:22:54.354Z,93.29
2018-11-02T12:24:04.256Z,93
2018-11-02T12:25:14.114Z,93.29
2018-11-02T12:26:24.304Z,93.29
2018-11-02T12:27:33.957Z,93.29
2018-11-02T12:28:43.965Z,93.19
2018-11-02T12:29:55.407Z,93.09
2018-11-02T12:31:05.485Z,93.09
2018-11-02T12:32:15.076Z,92.9
2018-11-02T12:33:25.276Z,93.09
2018-11-02T12:34:35.117Z,93.19
2018-11-02T12:35:45.239Z,92.61
2018-11-02T12:36:55.257Z,92.71
2018-11-02T12:38:05.863Z,92.56
2018-11-02T12:39:15.709Z,91.79
2018-11-02T12:40:25.952Z,91.36
2018-11-02T12:41:35.718Z,90.78
2018-11-02T12:42:45.575Z,91.4
2018-11-02T12:43:55.764Z,90.58
2018-11-02T12:45:05.947Z,90.58
2018-11-02T12:46:15.816Z,90.77
2018-11-02T12:47:25.664Z,90.96
2018-11-02T12:48:36.066Z,91.44
2018-11-02T12:49:48.670Z,91.49
2018-11-02T12:51:00.816Z,91.16
2018-11-02T12:52:10.976Z,91.44
2018-11-02T12:53:20.820Z,92.41
2018-11-02T12:54:30.977Z,92.27
2018-11-02T12:55:41.097Z,93.04
2018-11-02T12:56:51.240Z,92.8
2018-11-02T12:58:01.106Z,92.71
2018-11-02T12:59:11.144Z,93.09
2018-11-02T13:00:21.335Z,93.09
2018-11-02T13:01:30.924Z,93.09
2018-11-02T13:02:40.845Z,92.51
2018-11-02T13:03:50.966Z,92.71
2018-11-02T13:05:02.110Z,92.41
2018-11-02T13:06:11.969Z,92.99
2018-11-02T13:07:22.207Z,92.51
2018-11-02T13:08:32.343Z,92.71
2018-11-02T13:09:42.621Z,92.08
2018-11-02T13:10:52.207Z,92.36
2018-11-02T13:12:02.862Z,92.36
2018-11-02T13:13:13.317Z,92.08
2018-11-02T13:14:23.172Z,91.88
2018-11-02T13:15:33.052Z,92.17
2018-11-02T13:16:43.355Z,91.98
2018-11-02T13:17:53.214Z,92.08
2018-11-02T13:19:03.823Z,92.27
2018-11-02T13:20:14.318Z,91.98
2018-11-02T13:21:25.143Z,92.32
2018-11-02T13:22:35.424Z,92.22
2018-11-02T13:23:45.566Z,92.22
2018-11-02T13:24:55.451Z,92.02
2018-11-02T13:26:06.194Z,92.08
2018-11-02T13:27:17.249Z,92.75
2018-11-02T13:28:26.834Z,92.56
2018-11-02T13:29:37.062Z,92.75
2018-11-02T13:30:46.785Z,92.08
2018-11-02T13:31:57.644Z,92.02
2018-11-02T13:33:08.856Z,91.93
2018-11-02T13:34:18.709Z,92.12
2018-11-02T13:35:28.613Z,91.93
2018-11-02T13:36:38.790Z,92.32
2018-11-02T13:37:48.946Z,92.6
2018-11-02T13:38:58.537Z,92.85
2018-11-02T13:40:08.694Z,92.94
2018-11-02T13:41:18.540Z,92.94
2018-11-02T13:42:27.865Z,93.04
2018-11-02T13:43:38.204Z,93.04
2018-11-02T13:44:48.489Z,92.94
2018-11-02T13:45:58.618Z,92.56
2018-11-02T13:47:08.558Z,92.65
2018-11-02T13:48:18.682Z,92.71
2018-11-02T13:49:28.026Z,93.28
2018-11-02T13:50:38.335Z,92.9
2018-11-02T13:51:48.202Z,93.38
2018-11-02T13:52:58.174Z,93.38
2018-11-02T13:54:09.133Z,92.9
2018-11-02T13:55:19.762Z,93.09
2018-11-02T13:56:29.907Z,93.38
2018-11-02T13:57:39.800Z,93.91
2018-11-02T13:58:50.029Z,93.52
2018-11-02T13:59:59.855Z,93.62
2018-11-02T14:01:10.471Z,94.1
2018-11-02T14:02:21.037Z,93.81
2018-11-02T14:03:30.899Z,93.91
2018-11-02T14:04:40.806Z,93.96
2018-11-02T14:05:50.676Z,94.15
2018-11-02T14:07:00.529Z,94.15
2018-11-02T14:08:10.676Z,93.67
2018-11-02T14:09:20.088Z,93.91
2018-11-02T14:10:29.989Z,93.62
2018-11-02T14:11:39.901Z,93.52
2018-11-02T14:12:50.392Z,93.72
2018-11-02T14:14:00.256Z,92.94
2018-11-02T14:15:10.794Z,93.43
2018-11-02T14:16:21.538Z,92.94
2018-11-02T14:17:31.546Z,93.33
2018-11-02T14:19:00.652Z,93.57
2018-11-02T14:20:10.535Z,93.09
2018-11-02T14:21:20.401Z,93.57
2018-11-02T14:22:30.243Z,93.48
2018-11-02T14:23:40.484Z,92.8
2018-11-02T14:24:50.607Z,92.61
2018-11-02T14:26:02.796Z,92.9
2018-11-02T14:27:12.703Z,92.41
2018-11-02T14:28:22.870Z,92.94
2018-11-02T14:29:33.343Z,93.04
2018-11-02T14:30:44.273Z,92.46
2018-11-02T14:31:55.152Z,92.36
2018-11-02T14:33:06.319Z,92.65
2018-11-02T14:34:16.445Z,93.28
2018-11-02T14:35:26.343Z,92.94
2018-11-02T14:36:36.505Z,92.94
2018-11-02T14:37:46.376Z,92.46
2018-11-02T14:38:56.517Z,92.85
2018-11-02T14:40:08.905Z,93.28
2018-11-02T14:41:18.580Z,93.09
2018-11-02T14:42:28.801Z,93.28
2018-11-02T14:43:38.956Z,93.96
2018-11-02T14:44:49.104Z,93.57
2018-11-02T14:45:58.981Z,93.66
2018-11-02T14:47:09.118Z,94.15
2018-11-02T14:48:18.986Z,94.06
2018-11-02T14:49:28.873Z,93.81
2018-11-02T14:50:39.028Z,94.1
2018-11-02T14:51:48.948Z,94.59
2018-11-02T14:52:59.399Z,94.29
2018-11-02T14:54:10.269Z,94.2
2018-11-02T14:55:20.640Z,94.68
2018-11-02T14:56:30.808Z,94.39
2018-11-02T14:57:40.970Z,94.64
2018-11-02T14:58:51.156Z,94.92
2018-11-02T15:00:04.274Z,94.64
2018-11-02T15:01:14.415Z,94.82
2018-11-02T15:02:24.579Z,94.73
2018-11-02T15:03:34.253Z,94.92
2018-11-02T15:04:44.124Z,94.59
2018-11-02T15:05:54.269Z,94.78
2018-11-02T15:07:04.403Z,94.59
2018-11-02T15:08:14.493Z,94.68
2018-11-02T15:09:24.494Z,94.68
2018-11-02T15:10:34.347Z,94.68
2018-11-02T15:11:44.203Z,94.59
2018-11-02T15:12:54.085Z,94.49
2018-11-02T15:14:04.237Z,94.59
2018-11-02T15:15:14.866Z,94.73
2018-11-02T15:16:25.386Z,94.73
2018-11-02T15:17:35.582Z,94.64
2018-11-02T15:18:45.755Z,94.64
2018-11-02T15:19:55.944Z,94.73
2018-11-02T15:21:08.285Z,94.45
2018-11-02T15:22:18.144Z,94.45
2018-11-02T15:23:28.304Z,94.54
2018-11-02T15:24:38.532Z,94.35
2018-11-02T15:25:48.702Z,94.64
2018-11-02T15:26:58.283Z,94.64
2018-11-02T15:28:09.124Z,94.64
2018-11-02T15:29:18.985Z,94.64
2018-11-02T15:30:28.846Z,94.64
2018-11-02T15:31:38.697Z,94.64
2018-11-02T15:32:48.555Z,95.31
2018-11-02T15:33:58.129Z,94.88
2018-11-02T15:35:08.804Z,94.88
2018-11-02T15:36:19.238Z,94.98